createdAt,value
2022-07-30T00:00:28.110Z,100136.03
2022-07-30T00:02:57.648Z,100135.56
2022-07-30T00:05:26.098Z,100135.66
2022-07-30T00:07:54.259Z,100137.38
2022-07-30T00:10:24.031Z,100141.13
2022-07-30T00:12:52.898Z,100140.00
2022-07-30T00:15:21.310Z,100142.25
2022-07-30T00:17:49.514Z,100135.59
2022-07-30T00:20:19.317Z,100139.63
2022-07-30T00:22:47.899Z,100143.50
2022-07-30T00:25:16.384Z,100139.47
2022-07-30T00:27:45.400Z,100138.91
2022-07-30T00:30:14.751Z,100134.72
2022-07-30T00:32:44.798Z,100125.41
2022-07-30T00:35:14.990Z,100130.09
2022-07-30T00:37:44.818Z,100124.81
2022-07-30T00:40:13.168Z,100129.34
2022-07-30T00:42:44.967Z,100136.56
2022-07-30T00:45:14.913Z,100136.72
2022-07-30T00:47:43.378Z,100135.16
2022-07-30T00:50:14.768Z,100133.47
2022-07-30T00:52:45.639Z,100132.69
2022-07-30T00:55:16.468Z,100130.03
2022-07-30T00:57:45.487Z,100129.28
2022-07-30T01:00:17.467Z,100130.22
2022-07-30T01:02:46.028Z,100116.03
2022-07-30T01:05:15.201Z,100131.94
2022-07-30T01:07:45.266Z,100127.56
2022-07-30T01:10:16.419Z,100120.53
2022-07-30T01:12:45.597Z,100124.94
2022-07-30T01:15:14.065Z,100119.63
2022-07-30T01:17:42.548Z,100121.31
2022-07-30T01:20:17.197Z,100113.38
2022-07-30T01:22:56.698Z,100117.03
2022-07-30T01:25:38.708Z,100120.91
2022-07-30T01:28:11.409Z,100120.91
2022-07-30T01:30:42.779Z,100123.38
2022-07-30T01:33:15.377Z,100126.03
2022-07-30T01:35:46.349Z,100119.16
2022-07-30T01:38:16.719Z,100118.50
2022-07-30T01:40:47.527Z,100118.59
2022-07-30T01:43:18.828Z,100108.06
2022-07-30T01:45:49.256Z,100103.59
2022-07-30T01:48:22.088Z,100105.34
2022-07-30T01:50:54.387Z,100101.84
2022-07-30T01:53:29.367Z,100100.59
2022-07-30T01:56:03.129Z,100114.13
2022-07-30T01:58:36.497Z,100110.28
2022-07-30T02:01:15.240Z,100109.84
2022-07-30T02:03:43.753Z,100109.63
2022-07-30T02:06:19.167Z,100109.63
2022-07-30T02:08:53.547Z,100111.38
2022-07-30T02:11:38.227Z,100111.94
2022-07-30T02:14:23.700Z,100109.53
2022-07-30T02:16:58.703Z,100106.53
2022-07-30T02:19:34.585Z,100103.25
2022-07-30T02:22:09.467Z,100101.47
2022-07-30T02:24:42.749Z,100104.31
2022-07-30T02:27:16.658Z,100096.56
2022-07-30T02:29:47.482Z,100109.03
2022-07-30T02:32:20.209Z,100097.19
2022-07-30T02:34:54.699Z,100097.38
2022-07-30T02:37:42.993Z,100101.16
2022-07-30T02:40:16.998Z,100116.25
2022-07-30T02:42:51.108Z,100121.69
2022-07-30T02:45:25.138Z,100110.59
2022-07-30T02:47:57.067Z,100114.94
2022-07-30T02:50:27.019Z,100119.13
2022-07-30T02:52:57.608Z,100117.19
2022-07-30T02:55:29.557Z,100125.78
2022-07-30T02:58:01.584Z,100119.19
2022-07-30T03:00:32.409Z,100120.50
2022-07-30T03:03:02.003Z,100119.91
2022-07-30T03:05:31.387Z,100115.13
2022-07-30T03:08:02.553Z,100118.91
2022-07-30T03:10:33.038Z,100114.13
2022-07-30T03:13:03.898Z,100116.38
2022-07-30T03:15:39.455Z,100112.25
2022-07-30T03:18:11.987Z,100108.00
2022-07-30T03:20:41.118Z,100099.44
2022-07-30T03:23:12.397Z,100094.47
2022-07-30T03:25:42.530Z,100096.41
2022-07-30T03:28:14.015Z,100089.81
2022-07-30T03:30:44.798Z,100094.59
2022-07-30T03:33:13.600Z,100098.44
2022-07-30T03:35:44.781Z,100096.81
2022-07-30T03:38:14.515Z,100098.94
2022-07-30T03:40:43.528Z,100105.34
2022-07-30T03:43:32.220Z,100099.47
2022-07-30T03:46:04.259Z,100110.31
2022-07-30T03:48:36.788Z,100107.56
2022-07-30T03:51:09.269Z,100102.25
2022-07-30T03:53:41.948Z,100097.72
2022-07-30T03:56:28.937Z,100097.56
2022-07-30T03:58:59.414Z,100093.88
2022-07-30T04:01:27.742Z,100088.44
2022-07-30T04:04:05.626Z,100091.75
2022-07-30T04:06:36.478Z,100095.13
2022-07-30T04:09:04.937Z,100099.56
2022-07-30T04:11:41.623Z,100107.44
2022-07-30T04:14:16.350Z,100118.19
2022-07-30T04:16:50.903Z,100111.25
2022-07-30T04:19:27.687Z,100113.91
2022-07-30T04:21:57.947Z,100119.13
2022-07-30T04:24:28.198Z,100112.72
2022-07-30T04:26:58.325Z,100104.69
2022-07-30T04:29:28.980Z,100107.34
2022-07-30T04:31:58.177Z,100100.16
2022-07-30T04:34:48.829Z,100088.78
2022-07-30T04:37:22.799Z,100090.81
2022-07-30T04:39:54.168Z,100093.75
2022-07-30T04:42:23.411Z,100100.03
2022-07-30T04:45:03.767Z,100108.00
2022-07-30T04:47:45.937Z,100095.69
2022-07-30T04:50:36.100Z,100084.16
2022-07-30T04:53:08.960Z,100099.09
2022-07-30T04:55:43.527Z,100102.63
2022-07-30T04:58:14.540Z,100102.63
2022-07-30T05:00:45.078Z,100106.06
2022-07-30T05:03:18.616Z,100108.78
2022-07-30T05:05:57.143Z,100104.41
2022-07-30T05:08:28.312Z,100094.75
2022-07-30T05:11:00.259Z,100092.09
2022-07-30T05:13:34.592Z,100089.53
2022-07-30T05:16:08.842Z,100099.19
2022-07-30T05:18:37.548Z,100092.88
2022-07-30T05:21:06.438Z,100087.41
2022-07-30T05:23:50.140Z,100094.06
2022-07-30T05:26:38.857Z,100110.50
2022-07-30T05:29:08.849Z,100111.03
2022-07-30T05:31:48.430Z,100102.66
2022-07-30T05:34:18.071Z,100103.19
2022-07-30T05:36:47.229Z,100102.19
2022-07-30T05:39:18.329Z,100100.09
2022-07-30T05:42:05.107Z,100104.19
2022-07-30T05:44:37.404Z,100111.06
2022-07-30T05:47:07.009Z,100109.66
2022-07-30T05:49:35.192Z,100110.94
2022-07-30T05:52:08.868Z,100102.56
2022-07-30T05:54:37.058Z,100099.38
2022-07-30T05:57:05.503Z,100098.75
2022-07-30T05:59:35.939Z,100110.53
2022-07-30T06:02:12.068Z,100098.44
2022-07-30T06:04:53.962Z,100094.25
2022-07-30T06:07:23.622Z,100082.22
2022-07-30T06:09:54.258Z,100084.44
2022-07-30T06:12:22.718Z,100092.22
2022-07-30T06:14:51.239Z,100090.22
2022-07-30T06:17:26.789Z,100095.19
2022-07-30T06:20:13.938Z,100086.19
2022-07-30T06:23:00.702Z,100082.19
2022-07-30T06:25:48.331Z,100093.94
2022-07-30T06:28:36.971Z,100097.75
2022-07-30T06:31:06.777Z,100101.72
2022-07-30T06:33:36.348Z,100096.47
2022-07-30T06:36:05.389Z,100100.94
2022-07-30T06:38:42.723Z,100093.81
2022-07-30T06:41:15.833Z,100096.31
2022-07-30T06:43:53.728Z,100094.31
2022-07-30T06:46:44.395Z,100106.28
2022-07-30T06:49:15.401Z,100099.09
2022-07-30T06:51:43.728Z,100116.53
2022-07-30T06:54:12.228Z,100118.25
2022-07-30T06:56:59.194Z,100113.59
2022-07-30T06:59:29.248Z,100119.59
2022-07-30T07:02:16.239Z,100124.72
2022-07-30T07:05:01.978Z,100132.69
2022-07-30T07:07:41.209Z,100124.72
2022-07-30T07:10:13.108Z,100129.94
2022-07-30T07:12:46.886Z,100122.91
2022-07-30T07:15:18.368Z,100139.59
2022-07-30T07:17:46.658Z,100138.75
2022-07-30T07:20:30.789Z,100133.38
2022-07-30T07:23:09.188Z,100134.38
2022-07-30T07:25:40.473Z,100137.03
2022-07-30T07:28:11.994Z,100129.47
2022-07-30T07:30:45.144Z,100130.97
2022-07-30T07:33:16.319Z,100128.66
2022-07-30T07:35:50.259Z,100121.53
2022-07-30T07:38:28.159Z,100109.41
2022-07-30T07:40:57.099Z,100111.28
2022-07-30T07:43:26.268Z,100101.75
2022-07-30T07:45:58.014Z,100101.91
2022-07-30T07:48:29.329Z,100102.06
2022-07-30T07:51:09.611Z,100106.47
2022-07-30T07:53:39.196Z,100110.31
2022-07-30T07:56:09.068Z,100102.44
2022-07-30T07:58:38.301Z,100096.47
2022-07-30T08:01:11.632Z,100100.31
2022-07-30T08:03:59.978Z,100094.78
2022-07-30T08:06:49.906Z,100096.72
2022-07-30T08:09:44.259Z,100095.22
2022-07-30T08:12:24.128Z,100095.00
2022-07-30T08:15:11.466Z,100103.97
2022-07-30T08:17:58.309Z,100107.59
2022-07-30T08:20:45.013Z,100104.16
2022-07-30T08:23:16.150Z,100103.97
2022-07-30T08:25:44.856Z,100104.59
2022-07-30T08:28:35.354Z,100100.97
2022-07-30T08:31:02.543Z,100103.72
2022-07-30T08:33:31.020Z,100110.81
2022-07-30T08:36:04.265Z,100116.13
2022-07-30T08:38:39.160Z,100109.06
2022-07-30T08:41:08.640Z,100104.59
2022-07-30T08:43:38.537Z,100099.66
2022-07-30T08:46:11.348Z,100100.97
2022-07-30T08:51:18.419Z,100111.81
2022-07-30T08:53:48.578Z,100114.19
2022-07-30T08:56:17.516Z,100121.78
2022-07-30T08:58:48.508Z,100123.25
2022-07-30T09:01:18.469Z,100130.81
2022-07-30T09:03:46.838Z,100126.44
2022-07-30T09:06:16.176Z,100134.25
2022-07-30T09:08:45.858Z,100126.13
2022-07-30T09:11:15.614Z,100136.25
2022-07-30T09:13:45.066Z,100142.75
2022-07-30T09:16:23.663Z,100148.44
2022-07-30T09:18:54.268Z,100150.16
2022-07-30T09:21:24.833Z,100142.34
2022-07-30T09:24:10.655Z,100135.09
2022-07-30T09:27:01.584Z,100133.72
2022-07-30T09:29:57.502Z,100129.53
2022-07-30T09:32:51.319Z,100123.31
2022-07-30T09:35:41.568Z,100118.91
2022-07-30T09:38:11.423Z,100134.03
2022-07-30T09:41:04.839Z,100123.81
2022-07-30T09:43:49.818Z,100133.16
2022-07-30T09:46:41.757Z,100127.78
2022-07-30T09:49:15.822Z,100124.19
2022-07-30T09:51:54.234Z,100129.75
2022-07-30T09:54:26.762Z,100129.22
2022-07-30T09:57:22.759Z,100131.56
2022-07-30T09:59:59.880Z,100133.44
2022-07-30T10:02:32.921Z,100137.09
2022-07-30T10:05:21.497Z,100136.13
2022-07-30T10:07:54.549Z,100134.44
2022-07-30T10:10:25.996Z,100124.97
2022-07-30T10:12:59.118Z,100128.09
2022-07-30T10:15:59.649Z,100131.28
2022-07-30T10:19:18.098Z,100127.16
2022-07-30T10:23:08.122Z,100136.16
2022-07-30T10:26:42.281Z,100140.31
2022-07-30T10:29:48.145Z,100130.59
2022-07-30T12:25:08.448Z,100131.66
2022-07-30T12:27:37.131Z,100127.16
2022-07-30T12:30:06.297Z,100126.66
2022-07-30T12:32:35.068Z,100128.09
2022-07-30T12:35:04.487Z,100119.47
2022-07-30T12:37:33.288Z,100110.03
2022-07-30T12:40:21.487Z,100104.56
2022-07-30T12:42:52.560Z,100116.75
2022-07-30T12:45:51.783Z,100108.00
2022-07-30T12:48:20.438Z,100100.69
2022-07-30T12:50:50.227Z,100108.56
2022-07-30T12:53:18.816Z,100107.88
2022-07-30T12:55:48.497Z,100102.38
2022-07-30T12:58:16.566Z,100097.72
2022-07-30T13:00:52.125Z,100101.16
2022-07-30T13:03:22.630Z,100100.88
2022-07-30T13:05:55.319Z,100096.47
2022-07-30T13:08:46.829Z,100103.69
2022-07-30T13:11:17.663Z,100100.94
2022-07-30T13:13:46.197Z,100105.25
2022-07-30T13:16:14.598Z,100098.19
2022-07-30T13:18:42.786Z,100102.09
2022-07-30T13:21:11.459Z,100103.59
2022-07-30T13:23:40.637Z,100101.72
2022-07-30T13:26:10.984Z,100094.66
2022-07-30T13:28:40.726Z,100087.50
2022-07-30T13:31:09.356Z,100094.22
2022-07-30T13:33:38.187Z,100097.56
2022-07-30T13:36:06.697Z,100102.56
2022-07-30T13:38:35.031Z,100093.16
2022-07-30T13:41:03.321Z,100087.06
2022-07-30T13:43:33.561Z,100095.31
2022-07-30T13:46:04.669Z,100091.88
2022-07-30T13:48:33.977Z,100088.16
2022-07-30T13:51:03.690Z,100093.47
2022-07-30T13:53:32.406Z,100085.97
2022-07-30T13:56:00.795Z,100089.91
2022-07-30T13:58:32.918Z,100081.31
2022-07-30T14:01:07.267Z,100075.94
2022-07-30T14:03:36.275Z,100080.22
2022-07-30T14:06:10.758Z,100078.59
2022-07-30T14:08:39.704Z,100083.88
2022-07-30T14:11:08.330Z,100080.66
2022-07-30T14:13:36.611Z,100089.03
2022-07-30T14:16:18.090Z,100083.47
2022-07-30T14:18:55.629Z,100089.38
2022-07-30T14:21:23.869Z,100089.47
2022-07-30T14:23:52.190Z,100079.28
2022-07-30T14:26:20.178Z,100081.28
2022-07-30T14:28:48.298Z,100081.03
2022-07-30T14:31:18.147Z,100076.06
2022-07-30T14:33:46.979Z,100072.16
2022-07-30T14:36:15.468Z,100079.81
2022-07-30T14:38:43.807Z,100081.28
2022-07-30T14:41:12.598Z,100079.69
2022-07-30T14:43:41.036Z,100079.59
2022-07-30T14:46:09.067Z,100071.56
2022-07-30T14:48:38.517Z,100078.13
2022-07-30T14:51:16.213Z,100068.13
2022-07-30T14:53:47.949Z,100078.34
2022-07-30T14:56:17.648Z,100073.25
2022-07-30T14:58:46.092Z,100075.22
2022-07-30T15:01:16.647Z,100069.88
2022-07-30T15:03:47.359Z,100075.94
2022-07-30T15:06:16.189Z,100074.38
2022-07-30T15:08:45.998Z,100067.19
2022-07-30T15:11:14.531Z,100071.28
2022-07-30T15:13:50.298Z,100068.63
2022-07-30T15:16:19.116Z,100069.88
2022-07-30T15:18:48.722Z,100072.41
2022-07-30T15:21:17.257Z,100064.13
2022-07-30T15:23:45.697Z,100070.09
2022-07-30T15:26:13.967Z,100077.91
2022-07-30T15:28:42.637Z,100072.31
2022-07-30T15:31:10.817Z,100074.50
2022-07-30T15:33:42.937Z,100073.16
2022-07-30T15:36:13.377Z,100073.66
2022-07-30T15:38:41.897Z,100070.47
2022-07-30T15:41:13.485Z,100069.75
2022-07-30T15:43:42.675Z,100069.41
2022-07-30T15:46:10.755Z,100066.72
2022-07-30T15:48:38.930Z,100066.47
2022-07-30T15:51:07.015Z,100063.56
2022-07-30T15:53:36.547Z,100069.78
2022-07-30T15:56:05.218Z,100073.28
2022-07-30T15:58:33.945Z,100062.47
2022-07-30T16:01:02.062Z,100074.72
2022-07-30T16:03:30.278Z,100073.66
2022-07-30T16:05:58.447Z,100065.28
2022-07-30T16:08:26.755Z,100060.88
2022-07-30T16:10:56.256Z,100062.28
2022-07-30T16:13:24.588Z,100064.44
2022-07-30T16:15:53.036Z,100069.53
2022-07-30T16:18:21.256Z,100060.56
2022-07-30T16:20:49.387Z,100068.69
2022-07-30T16:23:21.314Z,100064.31
2022-07-30T16:25:50.078Z,100069.00
2022-07-30T16:28:19.526Z,100065.22
2022-07-30T16:30:51.312Z,100064.03
2022-07-30T16:33:21.000Z,100072.31
2022-07-30T16:35:50.895Z,100072.78
2022-07-30T16:38:20.278Z,100069.13
2022-07-30T16:40:48.684Z,100069.34
2022-07-30T16:43:19.849Z,100068.88
2022-07-30T16:45:49.863Z,100067.16
2022-07-30T16:48:18.146Z,100066.94
2022-07-30T16:50:46.989Z,100061.72
2022-07-30T16:53:15.187Z,100054.41
2022-07-30T16:55:43.420Z,100057.22
2022-07-30T16:58:11.665Z,100055.50
2022-07-30T17:00:40.701Z,100054.03
2022-07-30T17:03:11.944Z,100056.00
2022-07-30T17:05:48.682Z,100045.03
2022-07-30T17:08:17.651Z,100038.72
2022-07-30T17:10:46.476Z,100030.97
2022-07-30T17:13:16.592Z,100034.03
2022-07-30T17:15:46.787Z,100028.75
2022-07-30T17:18:17.298Z,100033.16
2022-07-30T17:20:46.167Z,100033.41
2022-07-30T17:23:14.448Z,100029.25
2022-07-30T17:25:42.707Z,100025.72
2022-07-30T17:28:11.045Z,100036.56
2022-07-30T17:30:39.222Z,100031.56
2022-07-30T17:33:07.538Z,100036.06
2022-07-30T17:35:37.778Z,100044.09
2022-07-30T17:38:07.347Z,100034.72
2022-07-30T17:40:35.907Z,100033.88
2022-07-30T17:43:04.993Z,100033.38
2022-07-30T17:45:34.465Z,100027.81
2022-07-30T17:48:02.798Z,100034.22
2022-07-30T17:50:32.190Z,100022.41
2022-07-30T17:53:03.720Z,100033.13
2022-07-30T17:55:34.805Z,100042.25
2022-07-30T17:58:03.358Z,100051.41
2022-07-30T18:00:31.689Z,100050.44
2022-07-30T18:02:59.727Z,100053.06
2022-07-30T18:05:28.097Z,100064.50
2022-07-30T18:07:56.197Z,100062.19
2022-07-30T18:10:25.697Z,100057.44
2022-07-30T18:12:54.129Z,100060.59
2022-07-30T18:15:23.178Z,100063.75
2022-07-30T18:17:51.308Z,100061.66
2022-07-30T18:20:19.635Z,100058.13
2022-07-30T18:22:51.563Z,100051.31
2022-07-30T18:25:20.136Z,100067.34
2022-07-30T18:27:53.144Z,100059.59
2022-07-30T18:30:21.369Z,100059.59
2022-07-30T18:32:49.758Z,100056.91
2022-07-30T18:35:18.358Z,100054.84
2022-07-30T18:37:46.578Z,100062.00
2022-07-30T18:40:20.576Z,100055.19
2022-07-30T18:42:53.819Z,100060.78
2022-07-30T18:45:22.727Z,100064.53
2022-07-30T18:47:51.020Z,100064.25
2022-07-30T18:50:20.189Z,100064.13
2022-07-30T18:52:48.799Z,100065.66
2022-07-30T18:55:18.003Z,100052.91
2022-07-30T18:57:46.168Z,100054.78
2022-07-30T19:00:34.547Z,100065.72
2022-07-30T19:03:04.313Z,100069.34
2022-07-30T19:05:32.713Z,100069.81
2022-07-30T19:08:01.018Z,100079.22
2022-07-30T19:10:29.139Z,100070.72
2022-07-30T19:12:57.558Z,100075.53
2022-07-30T19:15:28.388Z,100082.03
2022-07-30T19:17:57.069Z,100085.19
2022-07-30T19:20:26.838Z,100082.97
2022-07-30T19:23:02.920Z,100079.53
2022-07-30T19:25:32.517Z,100088.50
2022-07-30T19:28:02.008Z,100075.53
2022-07-30T19:30:32.409Z,100077.31
2022-07-30T19:33:04.719Z,100072.44
2022-07-30T19:35:33.558Z,100082.34
2022-07-30T19:38:01.957Z,100078.09
2022-07-30T19:40:31.178Z,100077.13
2022-07-30T19:43:01.987Z,100079.16
2022-07-30T19:45:47.147Z,100080.25
2022-07-30T19:48:28.471Z,100077.69
2022-07-30T19:50:58.779Z,100079.50
2022-07-30T19:53:31.016Z,100078.13
2022-07-30T19:56:03.177Z,100081.22
2022-07-30T19:58:31.947Z,100080.94
2022-07-30T20:01:02.343Z,100088.78
2022-07-30T20:03:38.808Z,100084.53
2022-07-30T20:06:08.297Z,100087.09
2022-07-30T20:08:44.790Z,100084.53
2022-07-30T20:11:21.283Z,100086.09
2022-07-30T20:14:02.038Z,100095.81
2022-07-30T20:16:31.858Z,100097.25
2022-07-30T20:19:00.118Z,100095.22
2022-07-30T20:21:56.806Z,100100.09
2022-07-30T20:24:19.737Z,100103.28
2022-07-30T20:26:49.290Z,100108.25
2022-07-30T20:29:19.217Z,100097.41
2022-07-30T20:31:50.132Z,100101.34
2022-07-30T20:34:23.662Z,100107.06
2022-07-30T20:36:54.058Z,100108.97
2022-07-30T20:39:25.449Z,100111.06
2022-07-30T20:42:07.816Z,100104.44
2022-07-30T20:44:37.747Z,100107.31
2022-07-30T20:47:08.772Z,100106.63
2022-07-30T20:49:37.117Z,100104.19
2022-07-30T20:52:07.266Z,100107.78
2022-07-30T20:54:35.755Z,100102.66
2022-07-30T20:57:06.439Z,100099.25
2022-07-30T20:59:35.638Z,100102.88
2022-07-30T21:02:04.843Z,100114.47
2022-07-30T21:04:36.618Z,100112.72
2022-07-30T21:07:05.408Z,100104.94
2022-07-30T21:09:52.007Z,100108.56
2022-07-30T21:12:32.562Z,100106.00
2022-07-30T21:15:01.551Z,100092.78
2022-07-30T21:17:29.844Z,100093.63
2022-07-30T21:19:59.847Z,100097.25
2022-07-30T21:22:29.618Z,100089.28
2022-07-30T21:24:58.219Z,100090.06
2022-07-30T21:27:29.938Z,100081.97
2022-07-30T21:29:58.397Z,100080.28
2022-07-30T21:32:28.036Z,100074.09
2022-07-30T21:34:56.559Z,100078.53
2022-07-30T21:37:27.024Z,100063.47
2022-07-30T21:40:06.156Z,100060.88
2022-07-30T21:42:34.356Z,100067.06
2022-07-30T21:45:03.418Z,100069.72
2022-07-30T21:47:31.796Z,100069.63
2022-07-30T21:50:00.677Z,100068.78
2022-07-30T21:52:30.457Z,100052.72
2022-07-30T21:54:58.866Z,100057.84
2022-07-30T21:57:32.776Z,100048.16
2022-07-30T22:00:03.597Z,100045.38
2022-07-30T22:02:39.743Z,100047.97
2022-07-30T22:05:23.720Z,100048.63
2022-07-30T22:08:10.426Z,100044.81
2022-07-30T22:10:38.846Z,100041.84
2022-07-30T22:13:10.156Z,100039.94
2022-07-30T22:15:38.936Z,100039.09
2022-07-30T22:18:07.977Z,100035.66
2022-07-30T22:20:37.417Z,100045.44
2022-07-30T22:23:09.576Z,100040.13
2022-07-30T22:25:39.857Z,100044.50
2022-07-30T22:28:12.430Z,100040.13
2022-07-30T22:30:42.308Z,100033.78
2022-07-30T22:33:13.021Z,100024.91
2022-07-30T22:35:46.503Z,100019.81
2022-07-30T22:38:17.295Z,100020.88
2022-07-30T22:40:49.459Z,100020.94
2022-07-30T22:43:17.768Z,100023.31
2022-07-30T22:45:48.669Z,100026.66
2022-07-30T22:48:19.394Z,100026.66
2022-07-30T22:50:53.204Z,100020.38
2022-07-30T22:54:02.986Z,100023.88
2022-07-30T22:56:14.251Z,100025.47
2022-07-30T22:58:44.742Z,100016.53
2022-07-30T23:01:16.995Z,100010.28
2022-07-30T23:03:45.246Z,100022.63
2022-07-30T23:06:16.747Z,100019.75
2022-07-30T23:08:50.526Z,100025.63
2022-07-30T23:11:19.175Z,100019.34
2022-07-30T23:13:49.288Z,100021.06
2022-07-30T23:16:17.863Z,100020.00
2022-07-30T23:18:46.036Z,100013.06
2022-07-30T23:21:14.974Z,100015.53
2022-07-30T23:23:43.175Z,100001.28
2022-07-30T23:26:12.747Z,100002.97
2022-07-30T23:28:40.905Z,100003.84
2022-07-30T23:31:09.045Z,99994.78
2022-07-30T23:33:37.795Z,99995.56
2022-07-30T23:36:06.945Z,99990.22
2022-07-30T23:38:36.237Z,99995.34
2022-07-30T23:41:06.809Z,99973.84
2022-07-30T23:43:36.572Z,99970.22
2022-07-30T23:46:09.516Z,99972.81
2022-07-30T23:48:39.484Z,99975.56
2022-07-30T23:51:08.929Z,99974.69
2022-07-30T23:53:37.104Z,99967.69
2022-07-30T23:56:05.724Z,99973.00
2022-07-30T23:58:34.265Z,99979.19
